createdAt,value
2017-10-09T00:00:45.636Z,91.81
2017-10-09T00:03:20.470Z,91.76
2017-10-09T00:05:55.643Z,91.54
2017-10-09T00:08:29.797Z,91.45
2017-10-09T00:11:04.996Z,91.53
2017-10-09T00:13:40.253Z,91.67
2017-10-09T00:16:15.559Z,91.52
2017-10-09T00:18:50.303Z,91.56
2017-10-09T00:21:25.012Z,91.43
2017-10-09T00:23:59.529Z,91.43
2017-10-09T00:26:34.399Z,91.35
2017-10-09T00:29:08.889Z,91.30
2017-10-09T00:31:43.679Z,91.23
2017-10-09T00:34:18.340Z,91.14
2017-10-09T00:36:53.157Z,91.07
2017-10-09T00:39:27.859Z,90.96
2017-10-09T00:42:02.287Z,90.79
2017-10-09T00:44:37.268Z,90.77
2017-10-09T00:47:11.827Z,90.58
2017-10-09T00:49:46.416Z,90.65
2017-10-09T00:52:20.596Z,90.54
2017-10-09T00:54:54.758Z,90.77
2017-10-09T00:57:29.765Z,90.92
2017-10-09T01:00:03.891Z,90.88
2017-10-09T01:02:39.116Z,90.77
2017-10-09T01:05:13.730Z,90.86
2017-10-09T01:07:48.603Z,90.86
2017-10-09T01:10:23.298Z,90.90
2017-10-09T01:12:58.034Z,90.76
2017-10-09T01:15:32.748Z,90.89
2017-10-09T01:18:07.176Z,91.01
2017-10-09T01:20:41.737Z,91.13
2017-10-09T01:23:16.441Z,91.25
2017-10-09T01:25:51.472Z,91.35
2017-10-09T01:28:26.087Z,91.37
2017-10-09T01:31:00.845Z,91.41
2017-10-09T01:33:35.606Z,91.42
2017-10-09T01:36:10.535Z,91.55
2017-10-09T01:38:45.180Z,91.67
2017-10-09T01:41:20.008Z,91.78
2017-10-09T01:43:54.808Z,91.82
2017-10-09T01:46:29.859Z,91.82
2017-10-09T01:49:05.144Z,91.72
2017-10-09T01:51:39.699Z,91.62
2017-10-09T01:54:15.048Z,91.59
2017-10-09T01:56:49.880Z,91.69
2017-10-09T01:59:24.532Z,91.85
2017-10-09T02:01:59.268Z,91.91
2017-10-09T02:04:34.037Z,91.96
2017-10-09T02:07:08.767Z,91.79
2017-10-09T02:09:43.492Z,91.73
2017-10-09T02:12:18.348Z,91.75
2017-10-09T02:14:53.295Z,91.87
2017-10-09T02:17:28.008Z,91.95
2017-10-09T02:20:02.933Z,91.88
2017-10-09T02:22:37.436Z,91.88
2017-10-09T02:25:12.000Z,91.69
2017-10-09T02:27:47.116Z,91.71
2017-10-09T02:30:21.778Z,91.83
2017-10-09T02:32:56.295Z,91.89
2017-10-09T02:35:31.920Z,91.98
2017-10-09T02:38:06.508Z,92.01
2017-10-09T02:40:41.260Z,92.19
2017-10-09T02:43:15.986Z,92.28
2017-10-09T02:45:51.660Z,92.44
2017-10-09T02:48:26.267Z,92.37
2017-10-09T02:51:01.316Z,92.45
2017-10-09T02:53:36.099Z,92.73
2017-10-09T02:56:11.080Z,92.80
2017-10-09T02:58:45.788Z,92.83
2017-10-09T03:01:21.425Z,92.96
2017-10-09T03:03:56.067Z,93.04
2017-10-09T03:06:30.887Z,93.12
2017-10-09T03:09:05.125Z,93.01
2017-10-09T03:11:40.184Z,92.97
2017-10-09T03:14:14.664Z,92.91
2017-10-09T03:16:49.496Z,92.91
2017-10-09T03:19:24.147Z,93.00
2017-10-09T03:21:58.784Z,93.17
2017-10-09T03:24:49.175Z,93.22
2017-10-09T03:27:24.312Z,93.03
2017-10-09T03:29:59.512Z,92.89
2017-10-09T03:32:34.279Z,92.86
2017-10-09T03:35:09.067Z,93.05
2017-10-09T03:37:43.728Z,93.06
2017-10-09T03:40:18.464Z,92.90
2017-10-09T03:42:53.188Z,93.00
2017-10-09T03:45:28.011Z,92.99
2017-10-09T03:48:02.935Z,93.05
2017-10-09T03:50:37.856Z,93.08
2017-10-09T03:53:13.011Z,93.21
2017-10-09T03:55:47.453Z,93.20
2017-10-09T03:58:22.540Z,93.14
2017-10-09T04:00:57.335Z,93.17
2017-10-09T04:03:32.004Z,93.15
2017-10-09T04:06:06.768Z,93.31
2017-10-09T04:08:41.779Z,93.30
2017-10-09T04:11:16.916Z,93.27
2017-10-09T04:13:51.662Z,93.26
2017-10-09T04:16:26.431Z,93.30
2017-10-09T04:19:00.971Z,93.27
2017-10-09T04:21:39.135Z,93.12
2017-10-09T04:24:14.099Z,93.05
2017-10-09T04:26:49.438Z,92.91
2017-10-09T04:32:26.831Z,93.16
2017-10-09T04:35:08.715Z,92.96
2017-10-09T04:37:50.047Z,93.01
2017-10-09T04:40:27.961Z,93.10
2017-10-09T04:43:13.709Z,93.09
2017-10-09T04:45:58.700Z,93.07
2017-10-09T04:48:36.608Z,93.00
2017-10-09T04:54:02.281Z,92.70
2017-10-09T04:56:48.316Z,92.93
2017-10-09T04:59:23.335Z,93.16
2017-10-09T05:01:59.048Z,93.16
2017-10-09T05:04:33.188Z,93.08
2017-10-09T05:07:07.895Z,92.95
2017-10-09T05:09:42.695Z,92.96
2017-10-09T05:12:17.927Z,92.96
2017-10-09T05:14:52.551Z,92.70
2017-10-09T05:17:26.852Z,92.63
2017-10-09T05:20:01.892Z,92.61
2017-10-09T05:22:36.531Z,92.56
2017-10-09T05:25:11.024Z,92.51
2017-10-09T05:27:46.638Z,92.38
2017-10-09T05:30:20.984Z,92.34
2017-10-09T05:32:55.899Z,92.30
2017-10-09T05:35:30.719Z,92.27
2017-10-09T05:38:05.548Z,92.31
2017-10-09T05:40:40.442Z,92.35
2017-10-09T05:43:15.251Z,92.39
2017-10-09T05:45:50.179Z,92.33
2017-10-09T05:48:25.052Z,92.32
2017-10-09T05:50:59.959Z,92.39
2017-10-09T05:53:34.810Z,92.38
2017-10-09T05:56:09.644Z,92.11
2017-10-09T05:58:44.597Z,92.27
2017-10-09T06:01:19.377Z,92.22
2017-10-09T06:03:54.199Z,92.27
2017-10-09T06:06:29.040Z,92.33
2017-10-09T06:09:03.299Z,92.53
2017-10-09T06:11:37.895Z,92.36
2017-10-09T06:14:12.920Z,92.31
2017-10-09T06:16:47.756Z,92.45
2017-10-09T06:19:22.276Z,92.50
2017-10-09T06:21:57.652Z,92.62
2017-10-09T06:24:32.448Z,92.67
2017-10-09T06:27:07.587Z,92.70
2017-10-09T06:29:42.707Z,92.68
2017-10-09T06:32:17.667Z,92.69
2017-10-09T06:34:52.863Z,92.58
2017-10-09T06:37:27.055Z,92.27
2017-10-09T06:40:01.876Z,92.12
2017-10-09T06:42:36.855Z,92.08
2017-10-09T06:45:11.218Z,92.02
2017-10-09T06:47:46.364Z,91.90
2017-10-09T06:50:21.835Z,91.88
2017-10-09T06:52:56.515Z,91.88
2017-10-09T06:55:31.563Z,91.69
2017-10-09T06:58:06.272Z,91.56
2017-10-09T07:00:40.920Z,91.47
2017-10-09T07:03:16.051Z,91.45
2017-10-09T07:05:50.803Z,91.46
2017-10-09T07:08:25.483Z,90.86
2017-10-09T07:11:00.408Z,90.17
2017-10-09T07:13:35.432Z,89.70
2017-10-09T07:16:10.339Z,90.01
2017-10-09T07:18:45.128Z,90.24
2017-10-09T07:21:20.039Z,90.16
2017-10-09T07:23:54.595Z,89.75
2017-10-09T07:26:29.331Z,89.80
2017-10-09T07:29:04.015Z,89.67
2017-10-09T07:31:39.289Z,88.96
2017-10-09T07:34:13.967Z,89.08
2017-10-09T07:36:48.767Z,89.35
2017-10-09T07:39:23.256Z,88.95
2017-10-09T07:41:59.735Z,88.91
2017-10-09T07:44:34.311Z,88.66
2017-10-09T07:47:08.876Z,88.04
2017-10-09T07:49:43.948Z,87.72
2017-10-09T07:52:18.839Z,87.45
2017-10-09T07:54:53.724Z,86.94
2017-10-09T07:57:28.643Z,85.67
2017-10-09T08:00:03.527Z,85.52
2017-10-09T08:02:38.556Z,85.96
2017-10-09T08:05:13.361Z,85.19
2017-10-09T08:07:48.283Z,85.11
2017-10-09T08:10:22.892Z,84.61
2017-10-09T08:12:57.615Z,84.97
2017-10-09T08:15:32.264Z,84.78
2017-10-09T08:18:07.068Z,84.46
2017-10-09T08:20:41.887Z,84.19
2017-10-09T08:23:16.500Z,83.56
2017-10-09T08:25:51.571Z,83.56
2017-10-09T08:28:26.303Z,82.89
2017-10-09T08:31:01.105Z,81.93
2017-10-09T08:33:35.947Z,81.21
2017-10-09T08:36:10.835Z,80.43
2017-10-09T08:38:45.868Z,80.31
2017-10-09T08:41:20.966Z,78.27
2017-10-09T08:43:55.573Z,78.75
2017-10-09T08:46:30.347Z,77.92
2017-10-09T08:49:05.760Z,78.42
2017-10-09T08:51:40.484Z,77.54
2017-10-09T08:54:15.244Z,77.49
2017-10-09T08:56:50.063Z,77.64
2017-10-09T08:59:24.824Z,77.92
2017-10-09T09:01:59.516Z,75.75
2017-10-09T09:04:34.576Z,75.42
2017-10-09T09:07:09.479Z,75.00
2017-10-09T09:09:44.315Z,75.25
2017-10-09T09:12:19.368Z,74.11
2017-10-09T09:14:54.140Z,74.36
2017-10-09T09:17:29.100Z,73.16
2017-10-09T09:20:03.752Z,73.85
2017-10-09T09:22:38.545Z,74.57
2017-10-09T09:25:13.388Z,73.66
2017-10-09T09:27:52.193Z,74.24
2017-10-09T09:30:27.248Z,74.24
2017-10-09T09:33:01.868Z,74.97
2017-10-09T09:35:36.587Z,74.87
2017-10-09T09:38:11.603Z,74.53
2017-10-09T09:40:46.087Z,73.46
2017-10-09T09:43:21.233Z,73.82
2017-10-09T09:45:55.832Z,73.48
2017-10-09T09:48:30.451Z,71.74
2017-10-09T09:51:05.496Z,72.84
2017-10-09T09:53:40.435Z,72.03
2017-10-09T09:56:15.344Z,71.45
2017-10-09T09:58:50.224Z,72.12
2017-10-09T10:01:25.013Z,71.53
2017-10-09T10:04:00.196Z,72.51
2017-10-09T10:06:34.984Z,72.65
2017-10-09T10:09:09.710Z,72.43
2017-10-09T10:11:45.288Z,73.50
2017-10-09T10:14:20.207Z,74.05
2017-10-09T10:16:55.400Z,73.01
2017-10-09T10:19:30.422Z,73.50
2017-10-09T10:22:05.247Z,74.33
2017-10-09T10:24:40.172Z,74.82
2017-10-09T10:27:15.379Z,74.68
2017-10-09T10:29:52.012Z,74.85
2017-10-09T10:32:27.534Z,75.40
2017-10-09T10:35:02.539Z,72.08
2017-10-09T10:37:37.542Z,73.00
2017-10-09T10:40:11.980Z,73.06
2017-10-09T10:42:46.680Z,72.69
2017-10-09T10:45:21.375Z,73.85
2017-10-09T10:47:56.112Z,72.99
2017-10-09T10:50:30.813Z,74.06
2017-10-09T10:53:05.488Z,73.99
2017-10-09T10:55:40.665Z,74.67
2017-10-09T10:58:15.076Z,74.12
2017-10-09T11:00:49.828Z,74.19
2017-10-09T11:03:24.752Z,74.75
2017-10-09T11:05:59.459Z,75.95
2017-10-09T11:08:34.320Z,75.69
2017-10-09T11:11:09.380Z,74.06
2017-10-09T11:13:43.868Z,74.35
2017-10-09T11:16:18.786Z,72.54
2017-10-09T11:18:53.215Z,73.31
2017-10-09T11:21:28.176Z,72.26
2017-10-09T11:24:03.149Z,71.53
2017-10-09T11:26:37.972Z,72.92
2017-10-09T11:29:12.947Z,71.78
2017-10-09T11:31:47.703Z,71.14
2017-10-09T11:34:22.617Z,70.78
2017-10-09T11:36:57.359Z,71.28
2017-10-09T11:39:31.984Z,69.96
2017-10-09T11:42:07.220Z,68.92
2017-10-09T11:44:42.090Z,69.59
2017-10-09T11:47:17.032Z,68.65
2017-10-09T11:49:51.992Z,67.69
2017-10-09T11:52:26.531Z,69.44
2017-10-09T11:55:01.389Z,68.55
2017-10-09T11:57:36.163Z,69.88
2017-10-09T12:00:11.086Z,70.33
2017-10-09T12:02:46.690Z,71.12
2017-10-09T12:05:21.560Z,71.54
2017-10-09T12:07:56.284Z,70.85
2017-10-09T12:10:30.875Z,71.85
2017-10-09T12:13:05.630Z,72.28
2017-10-09T12:15:40.375Z,72.16
2017-10-09T12:18:15.191Z,72.83
2017-10-09T12:20:49.904Z,74.15
2017-10-09T12:23:24.541Z,73.74
2017-10-09T12:25:59.487Z,73.81
2017-10-09T12:28:34.279Z,74.38
2017-10-09T12:31:10.147Z,74.17
2017-10-09T12:33:44.862Z,74.81
2017-10-09T12:36:19.103Z,74.88
2017-10-09T12:38:54.546Z,75.01
2017-10-09T12:41:29.183Z,74.51
2017-10-09T12:44:04.197Z,75.31
2017-10-09T12:46:38.722Z,75.20
2017-10-09T12:49:13.331Z,74.89
2017-10-09T12:51:48.372Z,75.89
2017-10-09T12:54:23.217Z,75.55
2017-10-09T12:56:58.044Z,75.39
2017-10-09T12:59:33.108Z,76.02
2017-10-09T13:02:08.379Z,75.63
2017-10-09T13:04:42.884Z,75.98
2017-10-09T13:07:17.590Z,76.70
2017-10-09T13:09:52.812Z,76.56
2017-10-09T13:12:27.820Z,76.84
2017-10-09T13:15:03.196Z,77.39
2017-10-09T13:17:38.172Z,77.68
2017-10-09T13:20:13.122Z,77.65
2017-10-09T13:22:48.132Z,78.65
2017-10-09T13:25:23.084Z,79.02
2017-10-09T13:27:58.127Z,79.25
2017-10-09T13:30:32.912Z,79.40
2017-10-09T13:33:07.888Z,78.92
2017-10-09T13:35:42.491Z,79.41
2017-10-09T13:38:17.007Z,79.20
2017-10-09T13:40:51.511Z,78.65
2017-10-09T13:43:26.402Z,79.09
2017-10-09T13:46:01.279Z,79.51
2017-10-09T13:48:36.404Z,79.53
2017-10-09T13:51:11.376Z,78.67
2017-10-09T13:53:46.391Z,78.91
2017-10-09T13:56:21.228Z,79.31
2017-10-09T13:58:56.119Z,79.53
2017-10-09T14:01:30.747Z,80.17
2017-10-09T14:04:06.532Z,80.21
2017-10-09T14:06:41.661Z,80.29
2017-10-09T14:09:16.785Z,80.18
2017-10-09T14:11:51.587Z,80.22
2017-10-09T14:14:26.390Z,80.32
2017-10-09T14:17:01.527Z,80.31
2017-10-09T14:19:36.560Z,80.78
2017-10-09T14:22:11.379Z,81.06
2017-10-09T14:24:46.303Z,81.74
2017-10-09T14:27:21.120Z,81.11
2017-10-09T14:29:55.848Z,81.28
2017-10-09T14:40:15.532Z,83.03
2017-10-09T14:42:50.836Z,83.87
2017-10-09T14:45:25.735Z,83.90
2017-10-09T14:48:01.073Z,83.83
2017-10-09T14:50:36.396Z,84.21
2017-10-09T14:53:11.804Z,84.88
2017-10-09T14:55:47.125Z,85.02
2017-10-09T14:58:22.285Z,84.64
2017-10-09T15:00:57.212Z,84.78
2017-10-09T15:03:32.540Z,84.45
2017-10-09T15:06:06.968Z,83.94
2017-10-09T15:08:42.052Z,84.16
2017-10-09T15:11:16.988Z,84.68
2017-10-09T15:13:52.079Z,85.63
2017-10-09T15:16:27.219Z,86.17
2017-10-09T15:19:02.268Z,87.07
2017-10-09T15:21:37.132Z,88.08
2017-10-09T15:24:12.131Z,88.29
2017-10-09T15:26:47.763Z,88.86
2017-10-09T15:29:22.780Z,89.97
2017-10-09T15:31:57.797Z,90.80
2017-10-09T15:34:32.884Z,91.36
2017-10-09T15:37:07.400Z,91.79
2017-10-09T15:39:42.735Z,92.36
2017-10-09T15:42:17.895Z,92.50
2017-10-09T15:44:52.191Z,92.26
2017-10-09T15:47:26.802Z,92.46
2017-10-09T15:50:01.622Z,91.96
2017-10-09T15:52:36.672Z,92.00
2017-10-09T15:55:12.103Z,91.45
2017-10-09T15:57:47.087Z,91.53
2017-10-09T16:00:22.072Z,91.69
2017-10-09T16:02:56.499Z,91.77
2017-10-09T16:05:31.400Z,92.22
2017-10-09T16:08:06.205Z,92.27
2017-10-09T16:10:41.433Z,92.38
2017-10-09T16:13:16.789Z,92.32
2017-10-09T16:15:51.072Z,92.40
2017-10-09T16:18:25.569Z,92.27
2017-10-09T16:21:00.568Z,92.38
2017-10-09T16:23:36.022Z,92.27
2017-10-09T16:26:11.244Z,92.37
2017-10-09T16:28:46.165Z,92.64
2017-10-09T16:31:20.923Z,92.66
2017-10-09T16:33:56.067Z,92.85
2017-10-09T16:36:30.917Z,92.91
2017-10-09T16:39:05.735Z,92.95
2017-10-09T16:41:40.920Z,92.88
2017-10-09T16:44:16.161Z,93.15
2017-10-09T16:46:50.784Z,93.40
2017-10-09T16:49:25.734Z,93.63
2017-10-09T16:52:00.499Z,93.75
2017-10-09T16:54:35.035Z,93.61
2017-10-09T16:57:09.920Z,93.73
2017-10-09T16:59:44.854Z,93.61
2017-10-09T17:02:19.476Z,93.66
2017-10-09T17:04:54.424Z,93.61
2017-10-09T17:07:29.286Z,94.09
2017-10-09T17:10:04.414Z,93.85
2017-10-09T17:12:39.116Z,93.95
2017-10-09T17:15:14.064Z,93.56
2017-10-09T17:17:48.920Z,93.20
2017-10-09T17:20:23.612Z,92.92
2017-10-09T17:22:58.364Z,93.33
2017-10-09T17:25:33.124Z,93.36
2017-10-09T17:28:07.821Z,93.47
2017-10-09T17:30:42.452Z,93.74
2017-10-09T17:33:16.659Z,94.09
2017-10-09T17:35:51.983Z,94.05
2017-10-09T17:38:26.749Z,93.88
2017-10-09T17:41:01.664Z,93.31
2017-10-09T17:43:36.589Z,93.79
2017-10-09T17:46:11.654Z,94.02
2017-10-09T17:48:46.475Z,94.13
2017-10-09T17:51:21.205Z,94.22
2017-10-09T17:53:56.059Z,94.21
2017-10-09T17:56:30.856Z,94.37
2017-10-09T17:59:05.460Z,94.45
2017-10-09T18:01:40.215Z,94.51
2017-10-09T18:04:14.976Z,94.55
2017-10-09T18:06:49.906Z,94.52
2017-10-09T18:09:24.883Z,94.62
2017-10-09T18:11:59.975Z,94.92
2017-10-09T18:14:35.069Z,95.06
2017-10-09T18:17:10.364Z,95.17
2017-10-09T18:19:45.440Z,95.22
2017-10-09T18:22:20.696Z,95.16
2017-10-09T18:24:55.452Z,95.24
2017-10-09T18:27:30.676Z,95.15
2017-10-09T18:30:06.124Z,94.79
2017-10-09T18:32:41.256Z,94.97
2017-10-09T18:35:16.608Z,95.06
2017-10-09T18:37:51.712Z,95.03
2017-10-09T18:40:26.659Z,95.00
2017-10-09T18:43:01.456Z,95.05
2017-10-09T18:45:36.446Z,95.15
2017-10-09T18:51:08.445Z,95.37
2017-10-09T18:53:43.401Z,95.32
2017-10-09T18:56:18.362Z,95.05
2017-10-09T18:58:53.174Z,94.92
2017-10-09T19:01:28.082Z,94.90
2017-10-09T19:04:02.909Z,94.95
2017-10-09T19:06:37.800Z,94.95
2017-10-09T19:09:13.010Z,95.08
2017-10-09T19:11:48.110Z,95.09
2017-10-09T19:14:23.041Z,94.98
2017-10-09T19:16:58.209Z,94.87
2017-10-09T19:19:33.071Z,95.02
2017-10-09T19:22:07.973Z,95.22
2017-10-09T19:24:42.765Z,95.25
2017-10-09T19:27:17.890Z,95.11
2017-10-09T19:29:53.050Z,95.15
2017-10-09T19:32:27.873Z,95.25
2017-10-09T19:35:02.600Z,95.09
2017-10-09T19:37:37.593Z,95.13
2017-10-09T19:40:12.553Z,95.28
2017-10-09T19:42:47.700Z,95.41
2017-10-09T19:45:22.737Z,95.56
2017-10-09T19:47:58.682Z,95.60
2017-10-09T19:50:33.538Z,95.87
2017-10-09T19:53:08.389Z,95.95
2017-10-09T19:55:43.196Z,95.70
2017-10-09T19:58:18.172Z,95.73
2017-10-09T20:00:52.909Z,96.00
2017-10-09T20:03:27.641Z,95.96
2017-10-09T20:06:02.561Z,95.99
2017-10-09T20:08:37.596Z,96.37
2017-10-09T20:11:12.170Z,96.50
2017-10-09T20:13:46.914Z,96.39
2017-10-09T20:16:21.651Z,96.19
2017-10-09T20:18:56.564Z,96.19
2017-10-09T20:21:31.305Z,96.23
2017-10-09T20:24:06.141Z,96.25
2017-10-09T20:26:41.096Z,96.19
2017-10-09T20:29:16.385Z,96.26
2017-10-09T20:31:51.442Z,96.28
2017-10-09T20:34:26.393Z,96.37
2017-10-09T20:37:01.101Z,96.37
2017-10-09T20:39:35.608Z,96.46
2017-10-09T20:42:10.558Z,96.37
2017-10-09T20:44:45.914Z,96.39
2017-10-09T20:47:20.976Z,96.42
2017-10-09T20:49:56.290Z,96.26
2017-10-09T20:52:31.316Z,96.48
2017-10-09T20:55:06.401Z,96.59
2017-10-09T20:57:41.301Z,96.76
2017-10-09T21:00:15.901Z,96.53
2017-10-09T21:02:51.059Z,96.54
2017-10-09T21:05:25.637Z,96.58
2017-10-09T21:08:00.764Z,96.44
2017-10-09T21:10:35.970Z,96.32
2017-10-09T21:13:10.765Z,96.41
2017-10-09T21:15:45.821Z,96.33
2017-10-09T21:18:20.629Z,96.67
2017-10-09T21:20:55.577Z,96.80
2017-10-09T21:23:30.581Z,96.92
2017-10-09T21:26:05.364Z,96.90
2017-10-09T21:28:40.224Z,97.09
2017-10-09T21:31:14.528Z,96.98
2017-10-09T21:33:49.786Z,97.09
2017-10-09T21:36:24.499Z,97.02
2017-10-09T21:38:59.428Z,97.23
2017-10-09T21:41:34.482Z,97.35
2017-10-09T21:44:09.436Z,97.28
2017-10-09T21:46:44.262Z,97.32
2017-10-09T21:49:19.193Z,97.25
2017-10-09T21:51:54.161Z,97.50
2017-10-09T21:54:29.225Z,97.67
2017-10-09T21:57:04.146Z,97.89
2017-10-09T21:59:39.233Z,98.12
2017-10-09T22:02:13.961Z,98.13
2017-10-09T22:04:49.398Z,97.94
2017-10-09T22:07:23.889Z,98.22
2017-10-09T22:09:59.122Z,98.34
2017-10-09T22:12:33.973Z,98.30
2017-10-09T22:15:08.808Z,98.20
2017-10-09T22:17:43.825Z,98.31
2017-10-09T22:20:18.852Z,98.36
2017-10-09T22:22:54.106Z,98.36
2017-10-09T22:25:28.917Z,98.47
2017-10-09T22:28:03.696Z,98.71
2017-10-09T22:30:38.438Z,98.69
2017-10-09T22:46:12.861Z,98.17
2017-10-09T22:48:48.166Z,98.35
2017-10-09T22:51:23.012Z,98.68
2017-10-09T22:53:57.722Z,98.75
2017-10-09T22:56:33.212Z,98.73
2017-10-09T22:59:08.005Z,98.86
2017-10-09T23:01:42.597Z,98.75
2017-10-09T23:04:17.238Z,98.87
2017-10-09T23:06:52.904Z,99.08
2017-10-09T23:09:27.751Z,99.05
2017-10-09T23:12:03.773Z,98.98
2017-10-09T23:14:38.298Z,99.11
2017-10-09T23:17:12.941Z,99.23
2017-10-09T23:19:47.648Z,99.40
2017-10-09T23:22:22.582Z,99.56
2017-10-09T23:24:57.286Z,99.63
2017-10-09T23:27:32.033Z,99.61
2017-10-09T23:30:06.297Z,99.59
2017-10-09T23:32:41.513Z,99.39
2017-10-09T23:35:16.349Z,99.35
2017-10-09T23:37:51.105Z,99.33
2017-10-09T23:40:26.704Z,99.29
2017-10-09T23:43:01.481Z,99.22
2017-10-09T23:45:36.313Z,99.42
2017-10-09T23:48:11.061Z,99.41
2017-10-09T23:50:45.921Z,99.44
2017-10-09T23:53:20.669Z,99.59
2017-10-09T23:55:55.530Z,99.69
2017-10-09T23:58:30.525Z,99.66
